sensor_id;sensor_type;location;lat;lon;timestamp;temperature;humidity
10155;DHT22;5118;48.570;7.916;2024-02-15T00:01:12;9.50;99.90
10155;DHT22;5118;48.570;7.916;2024-02-15T00:03:41;9.40;99.90
10155;DHT22;5118;48.570;7.916;2024-02-15T00:06:09;9.30;99.90
10155;DHT22;5118;48.570;7.916;2024-02-15T00:08:39;9.30;99.90
10155;DHT22;5118;48.570;7.916;2024-02-15T00:11:09;9.30;99.90
10155;DHT22;5118;48.570;7.916;2024-02-15T00:13:39;9.30;99.90
10155;DHT22;5118;48.570;7.916;2024-02-15T00:16:08;9.30;99.90
10155;DHT22;5118;48.570;7.916;2024-02-15T00:18:37;9.30;99.90
10155;DHT22;5118;48.570;7.916;2024-02-15T00:21:07;9.30;99.90
10155;DHT22;5118;48.570;7.916;2024-02-15T00:23:35;9.20;99.90
10155;DHT22;5118;48.570;7.916;2024-02-15T00:26:04;9.20;99.90
10155;DHT22;5118;48.570;7.916;2024-02-15T00:28:34;9.20;99.90
10155;DHT22;5118;48.570;7.916;2024-02-15T00:31:02;9.20;99.90
10155;DHT22;5118;48.570;7.916;2024-02-15T00:33:31;9.20;99.90
10155;DHT22;5118;48.570;7.916;2024-02-15T00:36:00;9.20;99.90
10155;DHT22;5118;48.570;7.916;2024-02-15T00:38:29;9.10;99.90
10155;DHT22;5118;48.570;7.916;2024-02-15T00:40:58;9.10;99.90
10155;DHT22;5118;48.570;7.916;2024-02-15T00:43:27;9.10;99.90
10155;DHT22;5118;48.570;7.916;2024-02-15T00:45:57;9.10;99.90
10155;DHT22;5118;48.570;7.916;2024-02-15T00:48:25;9.10;99.90
10155;DHT22;5118;48.570;7.916;2024-02-15T00:50:56;9.10;99.90
10155;DHT22;5118;48.570;7.916;2024-02-15T00:53:25;9.10;99.90
10155;DHT22;5118;48.570;7.916;2024-02-15T00:55:53;9.10;99.90
10155;DHT22;5118;48.570;7.916;2024-02-15T00:58:22;9.00;99.90
10155;DHT22;5118;48.570;7.916;2024-02-15T01:00:51;9.00;99.90
10155;DHT22;5118;48.570;7.916;2024-02-15T01:03:22;8.90;99.90
10155;DHT22;5118;48.570;7.916;2024-02-15T01:05:51;8.80;99.90
10155;DHT22;5118;48.570;7.916;2024-02-15T01:08:19;8.70;99.90
10155;DHT22;5118;48.570;7.916;2024-02-15T01:10:48;8.70;99.90
10155;DHT22;5118;48.570;7.916;2024-02-15T01:13:17;8.50;99.90
10155;DHT22;5118;48.570;7.916;2024-02-15T01:15:46;8.50;99.90
10155;DHT22;5118;48.570;7.916;2024-02-15T01:18:14;8.40;99.90
10155;DHT22;5118;48.570;7.916;2024-02-15T01:20:44;8.30;99.90
10155;DHT22;5118;48.570;7.916;2024-02-15T01:23:13;8.20;99.90
10155;DHT22;5118;48.570;7.916;2024-02-15T01:25:42;8.10;99.90
10155;DHT22;5118;48.570;7.916;2024-02-15T01:28:10;8.00;99.90
10155;DHT22;5118;48.570;7.916;2024-02-15T01:30:39;7.90;99.90
10155;DHT22;5118;48.570;7.916;2024-02-15T01:33:07;7.90;99.90
10155;DHT22;5118;48.570;7.916;2024-02-15T01:35:36;7.80;99.90
10155;DHT22;5118;48.570;7.916;2024-02-15T01:38:05;7.70;99.90
10155;DHT22;5118;48.570;7.916;2024-02-15T01:40:34;7.70;99.90
10155;DHT22;5118;48.570;7.916;2024-02-15T01:43:03;7.60;99.90
10155;DHT22;5118;48.570;7.916;2024-02-15T01:45:32;7.60;99.90
10155;DHT22;5118;48.570;7.916;2024-02-15T01:48:01;7.60;99.90
10155;DHT22;5118;48.570;7.916;2024-02-15T01:50:32;7.60;99.90
10155;DHT22;5118;48.570;7.916;2024-02-15T01:53:05;7.50;99.90
10155;DHT22;5118;48.570;7.916;2024-02-15T01:55:35;7.50;99.90
10155;DHT22;5118;48.570;7.916;2024-02-15T01:58:07;7.40;99.90
10155;DHT22;5118;48.570;7.916;2024-02-15T02:00:36;7.30;99.90
10155;DHT22;5118;48.570;7.916;2024-02-15T02:03:07;7.30;99.90
10155;DHT22;5118;48.570;7.916;2024-02-15T02:05:37;7.20;99.90
10155;DHT22;5118;48.570;7.916;2024-02-15T02:08:07;7.10;99.90
10155;DHT22;5118;48.570;7.916;2024-02-15T02:10:37;7.10;99.90
10155;DHT22;5118;48.570;7.916;2024-02-15T02:13:05;7.10;99.90
10155;DHT22;5118;48.570;7.916;2024-02-15T02:15:35;7.00;99.90
10155;DHT22;5118;48.570;7.916;2024-02-15T02:18:04;7.00;99.90
10155;DHT22;5118;48.570;7.916;2024-02-15T02:20:34;7.00;99.90
10155;DHT22;5118;48.570;7.916;2024-02-15T02:23:05;7.00;99.90
10155;DHT22;5118;48.570;7.916;2024-02-15T02:25:36;7.00;99.90
10155;DHT22;5118;48.570;7.916;2024-02-15T02:28:06;7.00;99.90
10155;DHT22;5118;48.570;7.916;2024-02-15T02:30:35;7.00;99.90
10155;DHT22;5118;48.570;7.916;2024-02-15T02:33:03;7.00;99.90
10155;DHT22;5118;48.570;7.916;2024-02-15T02:35:34;7.00;99.90
10155;DHT22;5118;48.570;7.916;2024-02-15T02:38:04;6.90;99.90
10155;DHT22;5118;48.570;7.916;2024-02-15T02:40:32;6.90;99.90
10155;DHT22;5118;48.570;7.916;2024-02-15T02:43:03;6.90;99.90
10155;DHT22;5118;48.570;7.916;2024-02-15T02:45:32;6.80;99.90
10155;DHT22;5118;48.570;7.916;2024-02-15T02:48:01;6.80;99.90
10155;DHT22;5118;48.570;7.916;2024-02-15T02:50:30;6.70;99.90
10155;DHT22;5118;48.570;7.916;2024-02-15T02:52:59;6.70;99.90
10155;DHT22;5118;48.570;7.916;2024-02-15T02:55:27;6.80;99.90
10155;DHT22;5118;48.570;7.916;2024-02-15T02:57:56;6.80;99.90
10155;DHT22;5118;48.570;7.916;2024-02-15T03:00:26;6.80;99.90
10155;DHT22;5118;48.570;7.916;2024-02-15T03:02:55;6.80;99.90
10155;DHT22;5118;48.570;7.916;2024-02-15T03:05:24;6.80;99.90
10155;DHT22;5118;48.570;7.916;2024-02-15T03:07:52;6.80;99.90
10155;DHT22;5118;48.570;7.916;2024-02-15T03:10:21;6.80;99.90
10155;DHT22;5118;48.570;7.916;2024-02-15T03:12:52;6.70;99.90
10155;DHT22;5118;48.570;7.916;2024-02-15T03:15:20;6.80;99.90
10155;DHT22;5118;48.570;7.916;2024-02-15T03:17:51;6.80;99.90
10155;DHT22;5118;48.570;7.916;2024-02-15T03:20:20;6.90;99.90
10155;DHT22;5118;48.570;7.916;2024-02-15T03:22:51;6.90;99.90
10155;DHT22;5118;48.570;7.916;2024-02-15T03:25:20;7.00;99.90
10155;DHT22;5118;48.570;7.916;2024-02-15T03:27:51;7.00;99.90
10155;DHT22;5118;48.570;7.916;2024-02-15T03:30:21;7.10;99.90
10155;DHT22;5118;48.570;7.916;2024-02-15T03:32:53;7.20;99.90
10155;DHT22;5118;48.570;7.916;2024-02-15T03:35:24;7.30;99.90
10155;DHT22;5118;48.570;7.916;2024-02-15T03:37:53;7.40;99.90
10155;DHT22;5118;48.570;7.916;2024-02-15T03:40:23;7.50;99.90
10155;DHT22;5118;48.570;7.916;2024-02-15T03:42:54;7.60;99.90
10155;DHT22;5118;48.570;7.916;2024-02-15T03:45:25;7.60;99.90
10155;DHT22;5118;48.570;7.916;2024-02-15T03:47:55;7.60;99.90
10155;DHT22;5118;48.570;7.916;2024-02-15T03:50:24;7.70;99.90
10155;DHT22;5118;48.570;7.916;2024-02-15T03:52:52;7.70;99.90
10155;DHT22;5118;48.570;7.916;2024-02-15T03:55:21;7.70;99.90
10155;DHT22;5118;48.570;7.916;2024-02-15T03:57:52;7.70;99.90
10155;DHT22;5118;48.570;7.916;2024-02-15T04:00:23;7.60;99.90
10155;DHT22;5118;48.570;7.916;2024-02-15T04:02:53;7.60;99.90
10155;DHT22;5118;48.570;7.916;2024-02-15T04:05:24;7.60;99.90
10155;DHT22;5118;48.570;7.916;2024-02-15T04:07:52;7.60;99.90
10155;DHT22;5118;48.570;7.916;2024-02-15T04:10:21;7.50;99.90
10155;DHT22;5118;48.570;7.916;2024-02-15T04:12:57;7.50;99.90
10155;DHT22;5118;48.570;7.916;2024-02-15T04:15:26;7.50;99.90
10155;DHT22;5118;48.570;7.916;2024-02-15T04:17:54;7.50;99.90
10155;DHT22;5118;48.570;7.916;2024-02-15T04:20:26;7.50;99.90
10155;DHT22;5118;48.570;7.916;2024-02-15T04:22:56;7.40;99.90
10155;DHT22;5118;48.570;7.916;2024-02-15T04:25:27;7.40;99.90
10155;DHT22;5118;48.570;7.916;2024-02-15T04:27:55;7.40;99.90
10155;DHT22;5118;48.570;7.916;2024-02-15T04:30:30;7.40;99.90
10155;DHT22;5118;48.570;7.916;2024-02-15T04:32:59;7.40;99.90
10155;DHT22;5118;48.570;7.916;2024-02-15T04:35:29;7.40;99.90
10155;DHT22;5118;48.570;7.916;2024-02-15T04:37:58;7.40;99.90
10155;DHT22;5118;48.570;7.916;2024-02-15T04:40:26;7.30;99.90
10155;DHT22;5118;48.570;7.916;2024-02-15T04:42:54;7.30;99.90
10155;DHT22;5118;48.570;7.916;2024-02-15T04:45:23;7.30;99.90
10155;DHT22;5118;48.570;7.916;2024-02-15T04:47:59;7.30;99.90
10155;DHT22;5118;48.570;7.916;2024-02-15T04:50:31;7.30;99.90
10155;DHT22;5118;48.570;7.916;2024-02-15T04:52:59;7.30;99.90
10155;DHT22;5118;48.570;7.916;2024-02-15T04:55:28;7.30;99.90
10155;DHT22;5118;48.570;7.916;2024-02-15T04:57:58;7.20;99.90
10155;DHT22;5118;48.570;7.916;2024-02-15T05:00:27;7.10;99.90
10155;DHT22;5118;48.570;7.916;2024-02-15T05:02:55;7.10;99.90
10155;DHT22;5118;48.570;7.916;2024-02-15T05:05:25;7.10;99.90
10155;DHT22;5118;48.570;7.916;2024-02-15T05:07:56;7.10;99.90
10155;DHT22;5118;48.570;7.916;2024-02-15T05:10:24;7.00;99.90
10155;DHT22;5118;48.570;7.916;2024-02-15T05:12:52;7.00;99.90
10155;DHT22;5118;48.570;7.916;2024-02-15T05:15:22;7.00;99.90
10155;DHT22;5118;48.570;7.916;2024-02-15T05:17:52;7.00;99.90
10155;DHT22;5118;48.570;7.916;2024-02-15T05:20:23;6.90;99.90
10155;DHT22;5118;48.570;7.916;2024-02-15T05:22:52;6.90;99.90
10155;DHT22;5118;48.570;7.916;2024-02-15T05:25:22;6.90;99.90
10155;DHT22;5118;48.570;7.916;2024-02-15T05:27:53;6.90;99.90
10155;DHT22;5118;48.570;7.916;2024-02-15T05:30:24;6.90;99.90
10155;DHT22;5118;48.570;7.916;2024-02-15T05:32:53;6.90;99.90
10155;DHT22;5118;48.570;7.916;2024-02-15T05:35:22;6.80;99.90
10155;DHT22;5118;48.570;7.916;2024-02-15T05:37:52;6.80;99.90
10155;DHT22;5118;48.570;7.916;2024-02-15T05:40:22;6.80;99.90
10155;DHT22;5118;48.570;7.916;2024-02-15T05:42:55;6.80;99.90
10155;DHT22;5118;48.570;7.916;2024-02-15T05:45:29;6.80;99.90
10155;DHT22;5118;48.570;7.916;2024-02-15T05:48:00;6.80;99.90
10155;DHT22;5118;48.570;7.916;2024-02-15T05:50:29;6.80;99.90
10155;DHT22;5118;48.570;7.916;2024-02-15T05:52:58;6.80;99.90
10155;DHT22;5118;48.570;7.916;2024-02-15T05:55:30;6.80;99.90
10155;DHT22;5118;48.570;7.916;2024-02-15T05:58:02;6.80;99.90
10155;DHT22;5118;48.570;7.916;2024-02-15T06:00:30;6.90;99.90
10155;DHT22;5118;48.570;7.916;2024-02-15T06:03:01;6.80;99.90
10155;DHT22;5118;48.570;7.916;2024-02-15T06:05:30;6.90;99.90
10155;DHT22;5118;48.570;7.916;2024-02-15T06:08:02;6.90;99.90
10155;DHT22;5118;48.570;7.916;2024-02-15T06:10:32;6.90;99.90
10155;DHT22;5118;48.570;7.916;2024-02-15T06:13:01;6.90;99.90
10155;DHT22;5118;48.570;7.916;2024-02-15T06:15:29;7.00;99.90
10155;DHT22;5118;48.570;7.916;2024-02-15T06:17:58;7.00;99.90
10155;DHT22;5118;48.570;7.916;2024-02-15T06:20:26;7.00;99.90
10155;DHT22;5118;48.570;7.916;2024-02-15T06:22:57;7.10;99.90
10155;DHT22;5118;48.570;7.916;2024-02-15T06:25:25;7.10;99.90
10155;DHT22;5118;48.570;7.916;2024-02-15T06:27:55;7.10;99.90
10155;DHT22;5118;48.570;7.916;2024-02-15T06:30:29;7.20;99.90
10155;DHT22;5118;48.570;7.916;2024-02-15T06:33:15;7.20;99.90
10155;DHT22;5118;48.570;7.916;2024-02-15T06:36:13;7.20;99.90
10155;DHT22;5118;48.570;7.916;2024-02-15T06:38:59;7.20;99.90
10155;DHT22;5118;48.570;7.916;2024-02-15T06:41:46;7.20;99.90
10155;DHT22;5118;48.570;7.916;2024-02-15T06:44:18;7.20;99.90
10155;DHT22;5118;48.570;7.916;2024-02-15T06:46:46;7.20;99.90
10155;DHT22;5118;48.570;7.916;2024-02-15T06:49:15;7.10;99.90
10155;DHT22;5118;48.570;7.916;2024-02-15T06:51:47;7.20;99.90
10155;DHT22;5118;48.570;7.916;2024-02-15T06:54:16;7.20;99.90
10155;DHT22;5118;48.570;7.916;2024-02-15T06:56:45;7.20;99.90
10155;DHT22;5118;48.570;7.916;2024-02-15T06:59:14;7.30;99.90
10155;DHT22;5118;48.570;7.916;2024-02-15T07:01:45;7.30;99.90
10155;DHT22;5118;48.570;7.916;2024-02-15T07:04:13;7.40;99.90
10155;DHT22;5118;48.570;7.916;2024-02-15T07:06:41;7.40;99.90
10155;DHT22;5118;48.570;7.916;2024-02-15T07:09:12;7.50;99.90
10155;DHT22;5118;48.570;7.916;2024-02-15T07:11:42;7.60;99.90
10155;DHT22;5118;48.570;7.916;2024-02-15T07:14:13;7.70;99.90
10155;DHT22;5118;48.570;7.916;2024-02-15T07:16:46;7.70;99.90
10155;DHT22;5118;48.570;7.916;2024-02-15T07:19:14;7.80;99.90
10155;DHT22;5118;48.570;7.916;2024-02-15T07:21:43;7.90;99.90
10155;DHT22;5118;48.570;7.916;2024-02-15T07:24:13;8.00;99.90
10155;DHT22;5118;48.570;7.916;2024-02-15T07:26:42;8.00;99.90
10155;DHT22;5118;48.570;7.916;2024-02-15T07:29:11;8.10;99.90
10155;DHT22;5118;48.570;7.916;2024-02-15T07:31:42;8.10;99.90
10155;DHT22;5118;48.570;7.916;2024-02-15T07:34:12;8.20;99.90
10155;DHT22;5118;48.570;7.916;2024-02-15T07:36:42;8.30;99.90
10155;DHT22;5118;48.570;7.916;2024-02-15T07:39:10;8.30;99.90
10155;DHT22;5118;48.570;7.916;2024-02-15T07:41:41;8.40;99.90
10155;DHT22;5118;48.570;7.916;2024-02-15T07:44:09;8.50;99.90
10155;DHT22;5118;48.570;7.916;2024-02-15T07:46:38;8.60;99.90
10155;DHT22;5118;48.570;7.916;2024-02-15T07:49:07;8.70;99.90
10155;DHT22;5118;48.570;7.916;2024-02-15T07:51:37;8.70;99.90
10155;DHT22;5118;48.570;7.916;2024-02-15T07:54:06;8.80;99.90
10155;DHT22;5118;48.570;7.916;2024-02-15T07:56:34;8.90;99.90
10155;DHT22;5118;48.570;7.916;2024-02-15T07:59:03;9.00;99.90
10155;DHT22;5118;48.570;7.916;2024-02-15T08:01:31;9.10;99.90
10155;DHT22;5118;48.570;7.916;2024-02-15T08:04:00;9.20;99.90
10155;DHT22;5118;48.570;7.916;2024-02-15T08:06:28;9.30;99.90
10155;DHT22;5118;48.570;7.916;2024-02-15T08:09:00;9.40;99.90
10155;DHT22;5118;48.570;7.916;2024-02-15T08:11:32;9.50;99.90
10155;DHT22;5118;48.570;7.916;2024-02-15T08:14:00;9.60;99.90
10155;DHT22;5118;48.570;7.916;2024-02-15T08:16:28;9.70;99.90
10155;DHT22;5118;48.570;7.916;2024-02-15T08:18:57;9.80;99.90
10155;DHT22;5118;48.570;7.916;2024-02-15T08:21:26;9.90;99.90
10155;DHT22;5118;48.570;7.916;2024-02-15T08:24:00;10.00;99.90
10155;DHT22;5118;48.570;7.916;2024-02-15T08:26:29;10.00;99.90
10155;DHT22;5118;48.570;7.916;2024-02-15T08:28:57;10.10;99.90
10155;DHT22;5118;48.570;7.916;2024-02-15T08:31:25;10.20;99.90
10155;DHT22;5118;48.570;7.916;2024-02-15T08:33:54;10.30;99.90
10155;DHT22;5118;48.570;7.916;2024-02-15T08:36:25;10.40;99.90
10155;DHT22;5118;48.570;7.916;2024-02-15T08:38:53;10.50;99.90
10155;DHT22;5118;48.570;7.916;2024-02-15T08:41:23;10.60;99.90
10155;DHT22;5118;48.570;7.916;2024-02-15T08:43:54;10.70;99.90
10155;DHT22;5118;48.570;7.916;2024-02-15T08:46:23;10.80;99.90
10155;DHT22;5118;48.570;7.916;2024-02-15T08:48:54;11.00;99.90
10155;DHT22;5118;48.570;7.916;2024-02-15T08:51:22;11.10;99.90
10155;DHT22;5118;48.570;7.916;2024-02-15T08:53:52;11.30;99.90
10155;DHT22;5118;48.570;7.916;2024-02-15T08:56:20;11.40;99.90
10155;DHT22;5118;48.570;7.916;2024-02-15T08:58:52;11.60;99.90
10155;DHT22;5118;48.570;7.916;2024-02-15T09:01:27;11.70;99.90
10155;DHT22;5118;48.570;7.916;2024-02-15T09:03:57;11.90;99.90
10155;DHT22;5118;48.570;7.916;2024-02-15T09:06:25;12.00;99.90
10155;DHT22;5118;48.570;7.916;2024-02-15T09:08:54;12.00;99.90
10155;DHT22;5118;48.570;7.916;2024-02-15T09:11:28;12.10;99.90
10155;DHT22;5118;48.570;7.916;2024-02-15T09:13:58;12.20;99.90
10155;DHT22;5118;48.570;7.916;2024-02-15T09:16:27;12.30;99.90
10155;DHT22;5118;48.570;7.916;2024-02-15T09:18:58;12.40;99.90
10155;DHT22;5118;48.570;7.916;2024-02-15T09:21:28;12.50;99.90
10155;DHT22;5118;48.570;7.916;2024-02-15T09:23:56;12.60;99.90
10155;DHT22;5118;48.570;7.916;2024-02-15T09:26:25;12.70;99.90
10155;DHT22;5118;48.570;7.916;2024-02-15T09:28:54;12.80;99.90
10155;DHT22;5118;48.570;7.916;2024-02-15T09:31:24;13.00;99.90
10155;DHT22;5118;48.570;7.916;2024-02-15T09:33:53;13.00;99.90
10155;DHT22;5118;48.570;7.916;2024-02-15T09:36:22;13.10;99.90
10155;DHT22;5118;48.570;7.916;2024-02-15T09:38:50;13.20;99.90
10155;DHT22;5118;48.570;7.916;2024-02-15T09:41:18;13.20;99.90
10155;DHT22;5118;48.570;7.916;2024-02-15T09:43:47;13.20;99.90
10155;DHT22;5118;48.570;7.916;2024-02-15T09:46:15;13.30;99.90
10155;DHT22;5118;48.570;7.916;2024-02-15T09:48:49;13.30;99.90
10155;DHT22;5118;48.570;7.916;2024-02-15T09:51:18;13.30;99.90
10155;DHT22;5118;48.570;7.916;2024-02-15T09:53:48;13.30;99.90
10155;DHT22;5118;48.570;7.916;2024-02-15T09:56:17;13.30;99.90
10155;DHT22;5118;48.570;7.916;2024-02-15T09:58:46;13.20;99.90
10155;DHT22;5118;48.570;7.916;2024-02-15T10:01:16;13.20;99.90
10155;DHT22;5118;48.570;7.916;2024-02-15T10:03:49;13.40;99.90
10155;DHT22;5118;48.570;7.916;2024-02-15T10:06:18;13.50;99.90
10155;DHT22;5118;48.570;7.916;2024-02-15T10:08:47;13.60;99.90
10155;DHT22;5118;48.570;7.916;2024-02-15T10:11:15;13.70;99.90
10155;DHT22;5118;48.570;7.916;2024-02-15T10:13:47;13.90;99.90
10155;DHT22;5118;48.570;7.916;2024-02-15T10:16:16;14.00;99.90
10155;DHT22;5118;48.570;7.916;2024-02-15T10:18:48;14.10;99.90
10155;DHT22;5118;48.570;7.916;2024-02-15T10:21:24;14.20;99.90
10155;DHT22;5118;48.570;7.916;2024-02-15T10:24:04;14.40;99.90
10155;DHT22;5118;48.570;7.916;2024-02-15T10:26:34;14.50;99.90
10155;DHT22;5118;48.570;7.916;2024-02-15T10:29:08;14.70;99.90
10155;DHT22;5118;48.570;7.916;2024-02-15T10:31:40;14.80;99.90
10155;DHT22;5118;48.570;7.916;2024-02-15T10:34:14;15.00;99.90
10155;DHT22;5118;48.570;7.916;2024-02-15T10:36:42;15.10;99.90
10155;DHT22;5118;48.570;7.916;2024-02-15T10:39:12;15.30;99.90
10155;DHT22;5118;48.570;7.916;2024-02-15T10:41:46;15.50;99.90
10155;DHT22;5118;48.570;7.916;2024-02-15T10:44:16;15.60;99.90
10155;DHT22;5118;48.570;7.916;2024-02-15T10:46:46;15.90;99.90
10155;DHT22;5118;48.570;7.916;2024-02-15T10:49:20;16.10;99.90
10155;DHT22;5118;48.570;7.916;2024-02-15T10:51:52;16.30;99.90
10155;DHT22;5118;48.570;7.916;2024-02-15T10:54:37;16.50;99.90
10155;DHT22;5118;48.570;7.916;2024-02-15T10:57:09;16.60;99.90
10155;DHT22;5118;48.570;7.916;2024-02-15T10:59:38;16.70;99.90
10155;DHT22;5118;48.570;7.916;2024-02-15T11:02:27;16.90;99.90
10155;DHT22;5118;48.570;7.916;2024-02-15T11:05:02;17.10;99.90
10155;DHT22;5118;48.570;7.916;2024-02-15T11:07:32;17.30;99.90
10155;DHT22;5118;48.570;7.916;2024-02-15T11:10:02;17.50;99.90
10155;DHT22;5118;48.570;7.916;2024-02-15T11:12:35;17.90;99.90
10155;DHT22;5118;48.570;7.916;2024-02-15T11:15:06;18.20;99.90
10155;DHT22;5118;48.570;7.916;2024-02-15T11:17:46;18.60;99.90
10155;DHT22;5118;48.570;7.916;2024-02-15T11:20:52;18.90;99.90
10155;DHT22;5118;48.570;7.916;2024-02-15T11:23:26;19.10;99.90
10155;DHT22;5118;48.570;7.916;2024-02-15T11:26:04;19.30;99.90
10155;DHT22;5118;48.570;7.916;2024-02-15T11:28:39;19.50;99.90
10155;DHT22;5118;48.570;7.916;2024-02-15T11:31:09;19.60;99.90
10155;DHT22;5118;48.570;7.916;2024-02-15T11:33:42;19.70;99.90
10155;DHT22;5118;48.570;7.916;2024-02-15T11:36:13;19.90;99.90
10155;DHT22;5118;48.570;7.916;2024-02-15T11:38:44;20.00;99.90
10155;DHT22;5118;48.570;7.916;2024-02-15T11:41:17;20.10;99.90
10155;DHT22;5118;48.570;7.916;2024-02-15T11:43:50;20.20;99.90
10155;DHT22;5118;48.570;7.916;2024-02-15T11:46:27;20.20;99.90
10155;DHT22;5118;48.570;7.916;2024-02-15T11:49:00;20.20;99.90
10155;DHT22;5118;48.570;7.916;2024-02-15T11:51:34;20.30;99.90
10155;DHT22;5118;48.570;7.916;2024-02-15T11:54:10;20.30;99.90
10155;DHT22;5118;48.570;7.916;2024-02-15T11:56:50;20.40;99.90
10155;DHT22;5118;48.570;7.916;2024-02-15T11:59:21;20.40;99.90
10155;DHT22;5118;48.570;7.916;2024-02-15T12:01:59;20.40;99.90
10155;DHT22;5118;48.570;7.916;2024-02-15T12:04:46;20.50;99.90
10155;DHT22;5118;48.570;7.916;2024-02-15T12:07:33;20.50;99.90
10155;DHT22;5118;48.570;7.916;2024-02-15T12:10:19;20.60;99.90
10155;DHT22;5118;48.570;7.916;2024-02-15T12:13:06;20.70;99.90
10155;DHT22;5118;48.570;7.916;2024-02-15T12:15:58;20.80;99.90
10155;DHT22;5118;48.570;7.916;2024-02-15T12:18:44;20.80;99.90
10155;DHT22;5118;48.570;7.916;2024-02-15T12:21:19;20.70;99.90
10155;DHT22;5118;48.570;7.916;2024-02-15T12:23:51;20.80;99.90
10155;DHT22;5118;48.570;7.916;2024-02-15T12:26:20;20.70;99.90
10155;DHT22;5118;48.570;7.916;2024-02-15T12:28:51;20.80;99.90
10155;DHT22;5118;48.570;7.916;2024-02-15T12:31:22;20.80;99.90
10155;DHT22;5118;48.570;7.916;2024-02-15T12:34:00;20.80;99.90
10155;DHT22;5118;48.570;7.916;2024-02-15T12:36:34;20.80;99.90
10155;DHT22;5118;48.570;7.916;2024-02-15T12:39:06;20.80;99.90
10155;DHT22;5118;48.570;7.916;2024-02-15T12:41:40;20.90;99.90
10155;DHT22;5118;48.570;7.916;2024-02-15T12:44:09;21.00;99.90
10155;DHT22;5118;48.570;7.916;2024-02-15T12:46:39;21.00;99.90
10155;DHT22;5118;48.570;7.916;2024-02-15T12:49:10;21.10;99.90
10155;DHT22;5118;48.570;7.916;2024-02-15T12:51:50;21.10;99.90
10155;DHT22;5118;48.570;7.916;2024-02-15T12:54:23;21.10;99.90
10155;DHT22;5118;48.570;7.916;2024-02-15T12:57:07;21.20;99.90
10155;DHT22;5118;48.570;7.916;2024-02-15T12:59:38;21.30;99.90
10155;DHT22;5118;48.570;7.916;2024-02-15T13:02:06;21.40;99.90
10155;DHT22;5118;48.570;7.916;2024-02-15T13:04:35;21.50;99.90
10155;DHT22;5118;48.570;7.916;2024-02-15T13:07:05;21.70;99.90
10155;DHT22;5118;48.570;7.916;2024-02-15T13:09:37;21.80;99.90
10155;DHT22;5118;48.570;7.916;2024-02-15T13:12:07;21.90;99.90
10155;DHT22;5118;48.570;7.916;2024-02-15T13:14:39;22.00;99.90
10155;DHT22;5118;48.570;7.916;2024-02-15T13:17:07;22.10;99.90
10155;DHT22;5118;48.570;7.916;2024-02-15T13:19:35;22.10;99.90
10155;DHT22;5118;48.570;7.916;2024-02-15T13:22:05;22.00;99.90
10155;DHT22;5118;48.570;7.916;2024-02-15T13:24:37;22.00;99.90
10155;DHT22;5118;48.570;7.916;2024-02-15T13:27:05;21.80;99.90
10155;DHT22;5118;48.570;7.916;2024-02-15T13:29:34;21.70;99.90
10155;DHT22;5118;48.570;7.916;2024-02-15T13:32:03;21.60;99.90
10155;DHT22;5118;48.570;7.916;2024-02-15T13:34:32;21.50;99.90
10155;DHT22;5118;48.570;7.916;2024-02-15T13:37:01;21.50;99.90
10155;DHT22;5118;48.570;7.916;2024-02-15T13:39:32;21.50;99.90
10155;DHT22;5118;48.570;7.916;2024-02-15T13:42:10;21.30;99.90
10155;DHT22;5118;48.570;7.916;2024-02-15T13:44:39;21.20;99.90
10155;DHT22;5118;48.570;7.916;2024-02-15T13:47:07;21.10;99.90
10155;DHT22;5118;48.570;7.916;2024-02-15T13:49:35;21.00;99.90
10155;DHT22;5118;48.570;7.916;2024-02-15T13:52:05;20.90;99.90
10155;DHT22;5118;48.570;7.916;2024-02-15T13:54:33;20.90;99.90
10155;DHT22;5118;48.570;7.916;2024-02-15T13:57:03;20.80;99.90
10155;DHT22;5118;48.570;7.916;2024-02-15T13:59:33;20.80;99.90
10155;DHT22;5118;48.570;7.916;2024-02-15T14:02:02;20.80;99.90
10155;DHT22;5118;48.570;7.916;2024-02-15T14:04:31;20.80;99.90
10155;DHT22;5118;48.570;7.916;2024-02-15T14:07:00;20.80;99.90
10155;DHT22;5118;48.570;7.916;2024-02-15T14:09:29;20.80;99.90
10155;DHT22;5118;48.570;7.916;2024-02-15T14:11:58;20.70;99.90
10155;DHT22;5118;48.570;7.916;2024-02-15T14:14:30;20.80;99.90
10155;DHT22;5118;48.570;7.916;2024-02-15T14:16:58;20.90;99.90
10155;DHT22;5118;48.570;7.916;2024-02-15T14:19:26;21.00;99.90
10155;DHT22;5118;48.570;7.916;2024-02-15T14:21:55;21.30;99.90
10155;DHT22;5118;48.570;7.916;2024-02-15T14:24:23;21.50;99.90
10155;DHT22;5118;48.570;7.916;2024-02-15T14:26:52;21.60;99.90
10155;DHT22;5118;48.570;7.916;2024-02-15T14:29:20;21.70;99.90
10155;DHT22;5118;48.570;7.916;2024-02-15T14:31:54;21.60;99.90
10155;DHT22;5118;48.570;7.916;2024-02-15T14:34:55;21.50;99.90
10155;DHT22;5118;48.570;7.916;2024-02-15T14:37:23;21.40;99.90
10155;DHT22;5118;48.570;7.916;2024-02-15T14:39:52;21.20;99.90
10155;DHT22;5118;48.570;7.916;2024-02-15T14:42:21;21.10;99.90
10155;DHT22;5118;48.570;7.916;2024-02-15T14:44:50;20.90;99.90
10155;DHT22;5118;48.570;7.916;2024-02-15T14:47:19;20.60;99.90
10155;DHT22;5118;48.570;7.916;2024-02-15T14:49:49;20.30;99.90
10155;DHT22;5118;48.570;7.916;2024-02-15T14:52:19;20.00;99.90
10155;DHT22;5118;48.570;7.916;2024-02-15T14:54:47;19.80;99.90
10155;DHT22;5118;48.570;7.916;2024-02-15T14:57:16;19.60;99.90
10155;DHT22;5118;48.570;7.916;2024-02-15T14:59:48;19.30;99.90
10155;DHT22;5118;48.570;7.916;2024-02-15T15:02:16;19.10;99.90
10155;DHT22;5118;48.570;7.916;2024-02-15T15:04:46;18.80;99.90
10155;DHT22;5118;48.570;7.916;2024-02-15T15:07:45;18.60;99.90
10155;DHT22;5118;48.570;7.916;2024-02-15T15:10:31;18.30;99.90
10155;DHT22;5118;48.570;7.916;2024-02-15T15:13:17;18.10;99.90
10155;DHT22;5118;48.570;7.916;2024-02-15T15:15:46;17.90;99.90
10155;DHT22;5118;48.570;7.916;2024-02-15T15:18:15;17.70;99.90
10155;DHT22;5118;48.570;7.916;2024-02-15T15:20:46;17.60;99.90
10155;DHT22;5118;48.570;7.916;2024-02-15T15:23:14;17.40;99.90
10155;DHT22;5118;48.570;7.916;2024-02-15T15:25:43;17.30;99.90
10155;DHT22;5118;48.570;7.916;2024-02-15T15:28:11;17.10;99.90
10155;DHT22;5118;48.570;7.916;2024-02-15T15:30:41;16.90;99.90
10155;DHT22;5118;48.570;7.916;2024-02-15T15:33:15;16.80;99.90
10155;DHT22;5118;48.570;7.916;2024-02-15T15:35:46;16.60;99.90
10155;DHT22;5118;48.570;7.916;2024-02-15T15:38:15;16.50;99.90
10155;DHT22;5118;48.570;7.916;2024-02-15T15:40:44;16.40;99.90
10155;DHT22;5118;48.570;7.916;2024-02-15T15:43:12;16.20;99.90
10155;DHT22;5118;48.570;7.916;2024-02-15T15:45:41;16.20;99.90
10155;DHT22;5118;48.570;7.916;2024-02-15T15:48:11;16.10;99.90
10155;DHT22;5118;48.570;7.916;2024-02-15T15:50:39;16.00;99.90
10155;DHT22;5118;48.570;7.916;2024-02-15T15:53:11;15.90;99.90
10155;DHT22;5118;48.570;7.916;2024-02-15T15:55:39;15.80;99.90
10155;DHT22;5118;48.570;7.916;2024-02-15T15:58:08;15.70;99.90
10155;DHT22;5118;48.570;7.916;2024-02-15T16:00:37;15.60;99.90
10155;DHT22;5118;48.570;7.916;2024-02-15T16:03:06;15.50;99.90
10155;DHT22;5118;48.570;7.916;2024-02-15T16:05:36;15.40;99.90
10155;DHT22;5118;48.570;7.916;2024-02-15T16:08:04;15.30;99.90
10155;DHT22;5118;48.570;7.916;2024-02-15T16:10:34;15.30;99.90
10155;DHT22;5118;48.570;7.916;2024-02-15T16:13:03;15.20;99.90
10155;DHT22;5118;48.570;7.916;2024-02-15T16:15:31;15.20;99.90
10155;DHT22;5118;48.570;7.916;2024-02-15T16:17:59;15.10;99.90